Time;durP1;ratioP1;P1;durP2;ratioP2;P2;SDS_P1;SDS_P2;PMS_P1;PMS_P2;Temp;Humidity;BMP_temperature;BMP_pressure;BME280_temperature;BME280_humidity;BME280_pressure;Samples;Min_cycle;Max_cycle;Signal;HPM_P1;HPM_P2
2021/09/22 00:00:06;;;;;;;10.20;8.50;;;;;;;8.92;86.90;99370.91;236041;1197;22582;-71
2021/09/22 00:05:14;;;;;;;12.50;9.20;;;;;;;8.97;87.04;99363.94;236055;1197;22571;-73
2021/09/22 00:10:21;;;;;;;13.40;9.50;;;;;;;9.03;87.41;99358.02;236147;1197;24017;-73
2021/09/22 00:15:26;;;;;;;11.00;8.90;;;;;;;9.09;87.26;99356.20;235893;1197;22582;-71
2021/09/22 00:20:33;;;;;;;11.00;8.30;;;;;;;9.06;87.22;99347.23;236180;1197;22408;-72
2021/09/22 00:25:38;;;;;;;11.00;8.60;;;;;;;9.06;87.23;99344.50;236255;1190;22457;-71
2021/09/22 00:30:44;;;;;;;11.30;9.30;;;;;;;9.11;87.59;99342.48;236053;1190;22430;-71
2021/09/22 00:35:50;;;;;;;10.50;8.80;;;;;;;9.14;87.59;99345.21;236166;1190;22549;-73
2021/09/22 00:40:54;;;;;;;10.60;8.40;;;;;;;9.14;87.66;99349.29;236760;1190;24185;-72
2021/09/22 00:46:03;;;;;;;8.10;5.80;;;;;;;9.12;87.54;99355.32;236316;1197;24485;-72
2021/09/22 00:51:08;;;;;;;7.00;5.30;;;;;;;9.04;87.21;99351.60;235948;1190;22446;-72
2021/09/22 00:56:11;;;;;;;7.70;5.20;;;;;;;8.97;87.29;99345.92;235949;1197;24187;-70
2021/09/22 01:01:14;;;;;;;6.50;5.00;;;;;;;8.92;87.26;99342.70;236005;1197;24056;-72
2021/09/22 01:06:18;;;;;;;9.90;5.10;;;;;;;8.90;87.45;99337.57;236028;1197;22787;-72
2021/09/22 01:11:21;;;;;;;7.90;5.60;;;;;;;8.91;87.64;99326.88;235990;1190;24053;-73
2021/09/22 01:16:26;;;;;;;7.20;5.10;;;;;;;8.90;87.64;99321.54;236034;1197;26533;-71
2021/09/22 01:21:29;;;;;;;7.20;5.20;;;;;;;8.85;87.39;99321.89;236045;1197;24159;-69
2021/09/22 01:26:33;;;;;;;10.20;7.30;;;;;;;8.79;87.59;99311.47;235943;1197;25750;-70
2021/09/22 01:31:40;;;;;;;10.10;7.00;;;;;;;8.79;87.85;99306.39;236028;1193;23134;-70
2021/09/22 01:36:47;;;;;;;9.20;6.50;;;;;;;8.77;87.79;99299.48;235821;1197;24683;-72
2021/09/22 01:41:52;;;;;;;10.70;7.10;;;;;;;8.76;87.90;99299.16;235987;1190;24091;-72
2021/09/22 01:46:55;;;;;;;9.80;6.90;;;;;;;8.75;87.81;99297.23;236105;1194;22452;-72
2021/09/22 01:52:09;;;;;;;10.90;7.20;;;;;;;8.72;87.82;99289.06;235848;1190;24572;-72
2021/09/22 01:57:32;;;;;;;10.70;6.40;;;;;;;8.76;88.45;99291.48;236057;1197;24155;-73
2021/09/22 02:02:35;;;;;;;11.20;7.60;;;;;;;8.81;88.81;99282.50;235975;1197;25038;-71
2021/09/22 02:07:49;;;;;;;11.30;7.40;;;;;;;8.77;88.12;99277.38;236108;1197;22415;-72
2021/09/22 02:12:57;;;;;;;11.80;8.10;;;;;;;8.71;88.17;99274.09;236134;1190;22430;-74
2021/09/22 02:18:01;;;;;;;9.20;7.00;;;;;;;8.69;88.23;99271.16;236194;1196;22428;-74
2021/09/22 02:23:03;;;;;;;9.20;7.10;;;;;;;8.71;88.38;99269.77;236395;1193;22539;-72
2021/09/22 02:28:06;;;;;;;10.30;7.50;;;;;;;8.71;88.62;99255.94;236008;1197;24184;-75
2021/09/22 02:33:13;;;;;;;10.60;7.20;;;;;;;8.70;88.47;99254.64;235981;1198;25032;-75
2021/09/22 02:38:39;;;;;;;10.90;8.10;;;;;;;8.66;88.46;99251.32;236000;1197;22506;-73
2021/09/22 02:43:41;;;;;;;11.70;8.30;;;;;;;8.65;88.54;99250.80;236183;1198;24220;-78
2021/09/22 02:49:09;;;;;;;9.80;7.30;;;;;;;8.66;88.87;99240.22;236298;1190;24038;-76
2021/09/22 02:54:12;;;;;;;10.60;6.90;;;;;;;8.63;88.61;99241.55;236142;1197;22569;-79
2021/09/22 02:59:22;;;;;;;10.80;7.00;;;;;;;8.60;88.58;99236.58;236001;1190;24721;-76
2021/09/22 03:04:25;;;;;;;9.90;7.00;;;;;;;8.59;88.80;99234.48;235900;1184;24149;-75
2021/09/22 03:09:29;;;;;;;9.30;6.40;;;;;;;8.58;88.77;99227.31;235975;1184;22534;-73
2021/09/22 03:14:54;;;;;;;10.80;7.00;;;;;;;8.57;88.89;99224.80;236167;1197;22915;-81
2021/09/22 03:19:58;;;;;;;10.80;7.00;;;;;;;8.55;88.66;99222.30;236265;1197;22415;-75
2021/09/22 03:25:03;;;;;;;14.00;8.20;;;;;;;8.52;88.67;99217.43;236257;1196;24026;-75
2021/09/22 03:30:07;;;;;;;14.70;8.10;;;;;;;8.52;89.23;99216.15;236477;1197;22450;-74
2021/09/22 03:35:14;;;;;;;12.40;7.50;;;;;;;8.52;89.02;99212.85;236174;1190;22555;-76
2021/09/22 03:40:17;;;;;;;13.60;8.20;;;;;;;8.55;89.22;99207.34;235998;1197;22456;-77
2021/09/22 03:45:20;;;;;;;16.90;8.30;;;;;;;8.51;88.77;99200.23;235963;1190;24133;-73
2021/09/22 03:50:24;;;;;;;12.80;8.60;;;;;;;8.50;88.88;99201.52;236245;1193;23174;-76
2021/09/22 03:55:44;;;;;;;15.50;9.00;;;;;;;8.57;89.34;99200.04;235810;1198;24161;-74
2021/09/22 04:00:50;;;;;;;15.70;9.50;;;;;;;8.63;89.45;99199.95;236113;1190;22560;-75
2021/09/22 04:05:53;;;;;;;14.60;9.20;;;;;;;8.65;89.39;99201.23;236177;1192;22426;-74
2021/09/22 04:10:59;;;;;;;14.80;9.20;;;;;;;8.72;89.80;99205.02;236161;1198;24043;-74
2021/09/22 04:16:17;;;;;;;18.80;9.80;;;;;;;8.69;89.50;99201.27;236125;1197;25129;-78
2021/09/22 04:21:20;;;;;;;15.60;9.40;;;;;;;8.64;89.32;99211.96;236492;1190;24148;-76
2021/09/22 04:26:25;;;;;;;13.40;9.80;;;;;;;8.60;89.22;99210.35;236420;1193;25130;-77
2021/09/22 04:31:37;;;;;;;14.50;8.80;;;;;;;8.61;89.57;99213.17;236116;1198;22863;-78
2021/09/22 04:37:09;;;;;;;17.00;10.40;;;;;;;8.59;89.47;99214.73;236115;1193;25120;-77
2021/09/22 04:42:39;;;;;;;14.70;10.30;;;;;;;8.61;89.57;99213.19;236146;1190;24095;-77
2021/09/22 04:48:20;;;;;;;14.30;10.10;;;;;;;8.67;90.14;99217.41;236363;1197;24868;-77
2021/09/22 04:53:47;;;;;;;16.10;9.60;;;;;;;8.74;90.20;99219.67;236189;1197;25321;-79
2021/09/22 04:59:21;;;;;;;14.30;9.70;;;;;;;8.73;89.52;99216.52;236170;1193;25041;-76
2021/09/22 05:04:43;;;;;;;14.50;9.90;;;;;;;8.74;89.55;99216.62;236285;1182;23995;-79
2021/09/22 05:10:06;;;;;;;16.60;10.90;;;;;;;8.77;89.30;99223.14;236252;1198;24094;-78
2021/09/22 05:15:28;;;;;;;19.50;12.80;;;;;;;8.81;89.54;99224.38;236093;1197;22556;-75
2021/09/22 05:20:50;;;;;;;18.60;11.60;;;;;;;8.83;89.61;99224.96;236281;1197;24050;-75
2021/09/22 05:26:16;;;;;;;18.60;11.00;;;;;;;8.85;89.45;99227.15;236255;1198;23014;-75
2021/09/22 05:31:37;;;;;;;14.10;9.30;;;;;;;8.91;89.64;99232.62;236087;1198;24043;-78
2021/09/22 05:37:16;;;;;;;17.60;10.30;;;;;;;8.98;89.57;99238.34;235575;1197;25045;-78
2021/09/22 05:42:51;;;;;;;16.70;10.30;;;;;;;9.02;89.55;99242.30;236112;1197;24142;-78
2021/09/22 05:48:20;;;;;;;16.90;11.10;;;;;;;9.13;90.23;99249.14;236357;1191;24152;-78
2021/09/22 05:53:43;;;;;;;20.70;13.40;;;;;;;9.21;89.90;99246.90;236702;1182;24048;-77
2021/09/22 05:59:09;;;;;;;24.50;15.20;;;;;;;9.27;89.75;99250.06;236858;1197;22458;-78
2021/09/22 06:04:31;;;;;;;22.10;14.80;;;;;;;9.37;89.82;99255.68;236666;1190;24095;-78
2021/09/22 06:09:53;;;;;;;23.10;14.30;;;;;;;9.47;89.98;99259.94;237482;1190;22420;-79
2021/09/22 06:15:05;;;;;;;19.90;12.80;;;;;;;9.50;89.50;99261.39;237305;1190;24547;-77
2021/09/22 06:20:18;;;;;;;22.70;13.40;;;;;;;9.56;89.52;99254.31;236971;1192;22929;-79
2021/09/22 06:25:35;;;;;;;20.60;13.70;;;;;;;9.57;88.88;99267.80;237022;1197;22528;-85
2021/09/22 06:30:38;;;;;;;25.90;15.30;;;;;;;9.55;88.72;99276.09;237061;1196;22556;-79
2021/09/22 06:35:43;;;;;;;23.30;14.90;;;;;;;9.49;88.69;99279.20;236982;1190;24099;-78
2021/09/22 06:40:51;;;;;;;25.70;14.90;;;;;;;9.40;88.39;99275.77;236950;1174;25070;-77
2021/09/22 06:45:54;;;;;;;27.00;15.50;;;;;;;9.33;88.28;99281.45;237127;1190;22433;-77
2021/09/22 06:50:57;;;;;;;25.70;15.70;;;;;;;9.36;88.47;99287.50;236687;1190;22575;-78
2021/09/22 06:56:18;;;;;;;25.90;15.30;;;;;;;9.51;88.76;99286.20;236701;1190;22448;-78
2021/09/22 07:01:40;;;;;;;23.40;15.10;;;;;;;9.73;88.61;99281.73;236694;1190;24062;-77
2021/09/22 07:07:02;;;;;;;21.60;14.40;;;;;;;9.99;88.91;99280.13;236491;1197;22422;-78
2021/09/22 07:12:24;;;;;;;19.70;12.80;;;;;;;10.21;88.62;99286.13;236646;1190;25204;-76
2021/09/22 07:17:47;;;;;;;24.80;15.00;;;;;;;10.30;87.83;99288.06;236707;1197;24066;-78
2021/09/22 07:23:08;;;;;;;25.10;14.40;;;;;;;10.38;87.69;99287.21;236543;1192;22447;-77
2021/09/22 07:28:11;;;;;;;23.10;14.80;;;;;;;10.42;87.01;99288.20;236859;1190;24006;-78
2021/09/22 07:33:28;;;;;;;23.90;15.70;;;;;;;10.42;86.91;99295.77;236836;1197;25210;-78
2021/09/22 07:38:41;;;;;;;24.40;16.00;;;;;;;10.50;87.20;99305.31;236713;1193;24093;-79
2021/09/22 07:43:45;;;;;;;23.30;14.70;;;;;;;10.66;87.11;99311.98;238511;1197;26140;-82
2021/09/22 07:48:47;;;;;;;25.30;15.90;;;;;;;10.80;86.74;99312.36;238596;1197;22514;-79
2021/09/22 07:53:53;;;;;;;28.50;17.50;;;;;;;10.90;86.32;99318.46;237557;1194;24181;-83
2021/09/22 07:58:56;;;;;;;21.30;14.40;;;;;;;11.07;86.16;99328.19;238843;1197;22450;-80
2021/09/22 08:03:59;;;;;;;21.90;14.30;;;;;;;11.20;85.70;99334.69;237753;1190;22495;-81
2021/09/22 08:09:03;;;;;;;24.50;15.90;;;;;;;11.31;85.37;99336.27;240371;1197;24101;-83
2021/09/22 08:14:08;;;;;;;28.10;15.90;;;;;;;11.45;85.37;99340.80;238640;1197;22646;-88
2021/09/22 08:19:24;;;;;;;24.80;15.90;;;;;;;11.53;84.98;99343.84;238629;1183;24039;-85
2021/09/22 08:24:35;;;;;;;27.80;15.70;;;;;;;11.48;84.61;99348.34;237490;1192;23510;-88
2021/09/22 08:29:39;;;;;;;26.30;16.70;;;;;;;11.45;84.43;99344.80;239225;1190;22463;-82
2021/09/22 08:34:42;;;;;;;23.80;15.50;;;;;;;11.44;84.27;99348.52;238157;1197;22452;-80
2021/09/22 08:39:45;;;;;;;27.20;16.70;;;;;;;11.41;84.11;99357.93;238519;1197;24104;-81
2021/09/22 08:44:50;;;;;;;25.40;16.70;;;;;;;11.38;84.23;99362.68;238515;1197;22458;-81
2021/09/22 08:49:53;;;;;;;28.90;18.60;;;;;;;11.36;84.02;99360.42;238190;1190;23374;-80
2021/09/22 08:54:56;;;;;;;30.10;18.60;;;;;;;11.52;84.22;99358.99;237313;1190;22460;-81
2021/09/22 08:59:59;;;;;;;30.90;19.10;;;;;;;11.81;84.48;99358.15;238636;1192;22465;-80
2021/09/22 09:05:17;;;;;;;32.50;20.70;;;;;;;12.02;84.01;99357.15;238263;1197;25027;-83
2021/09/22 09:10:27;;;;;;;30.50;20.10;;;;;;;11.99;83.47;99353.20;238459;1190;22599;-81
2021/09/22 09:15:37;;;;;;;31.20;19.80;;;;;;;11.98;83.52;99355.98;238612;1190;22443;-82
2021/09/22 09:20:41;;;;;;;27.50;17.70;;;;;;;12.01;83.25;99357.84;238182;1190;24051;-82
2021/09/22 09:25:52;;;;;;;32.10;19.50;;;;;;;11.94;82.63;99357.52;238477;1190;22436;-80
2021/09/22 09:31:15;;;;;;;26.50;16.90;;;;;;;11.94;82.67;99351.84;239164;1196;22525;-81
2021/09/22 09:36:33;;;;;;;28.50;18.90;;;;;;;12.12;82.38;99350.50;239601;1190;22466;-82
2021/09/22 09:41:48;;;;;;;28.70;18.50;;;;;;;12.42;82.24;99356.73;239158;1190;25181;-81
2021/09/22 09:46:54;;;;;;;28.10;17.40;;;;;;;12.69;81.71;99359.59;239768;1190;23076;-80
2021/09/22 09:52:00;;;;;;;26.10;18.30;;;;;;;12.69;81.13;99360.71;239037;1190;25043;-82
2021/09/22 09:57:17;;;;;;;26.50;18.30;;;;;;;12.64;81.08;99362.48;239221;1190;24028;-81
2021/09/22 10:02:35;;;;;;;29.30;19.40;;;;;;;12.88;81.44;99366.49;238684;1198;22546;-80
2021/09/22 10:07:58;;;;;;;25.80;17.50;;;;;;;13.26;81.34;99371.84;238207;1196;23931;-81
2021/09/22 10:13:01;;;;;;;30.30;19.10;;;;;;;13.33;80.17;99372.39;238431;1197;22475;-83
2021/09/22 10:18:06;;;;;;;26.40;18.80;;;;;;;13.47;80.00;99370.32;238188;1197;22470;-83
2021/09/22 10:23:11;;;;;;;26.70;18.10;;;;;;;13.45;79.20;99371.17;238547;1197;22446;-81
2021/09/22 10:28:15;;;;;;;26.90;19.10;;;;;;;13.23;79.10;99375.23;238733;1191;24919;-81
2021/09/22 10:33:28;;;;;;;22.10;16.80;;;;;;;13.02;79.41;99377.39;238635;1190;25335;-79
2021/09/22 10:38:31;;;;;;;26.20;19.10;;;;;;;12.84;79.44;99376.39;237555;1190;23202;-80
2021/09/22 10:43:40;;;;;;;25.00;16.20;;;;;;;12.90;80.04;99374.49;237305;1192;24139;-79
2021/09/22 10:49:01;;;;;;;26.20;20.00;;;;;;;13.19;79.87;99371.02;237601;1197;22564;-79
2021/09/22 10:54:27;;;;;;;23.70;18.90;;;;;;;13.43;79.19;99375.50;237378;1196;22441;-79
2021/09/22 10:59:39;;;;;;;26.00;19.80;;;;;;;13.56;78.66;99373.90;237679;1191;24009;-80
2021/09/22 11:05:01;;;;;;;22.60;18.60;;;;;;;13.53;77.83;99380.56;237426;1190;22456;-81
2021/09/22 11:10:48;;;;;;;23.60;17.80;;;;;;;13.40;77.44;99382.11;237088;1197;22448;-81
2021/09/22 11:15:55;;;;;;;24.70;18.80;;;;;;;13.29;77.18;99382.40;237489;1190;24032;-79
2021/09/22 11:21:00;;;;;;;29.70;19.80;;;;;;;13.21;77.19;99379.98;237824;1194;22427;-81
2021/09/22 11:26:09;;;;;;;25.00;17.80;;;;;;;13.19;77.26;99380.61;238589;1192;23103;-79
2021/09/22 11:31:13;;;;;;;26.00;18.80;;;;;;;13.07;77.37;99380.77;238816;1197;25173;-81
2021/09/22 11:36:16;;;;;;;24.80;17.60;;;;;;;13.06;77.66;99376.42;238976;1197;22424;-82
2021/09/22 11:41:19;;;;;;;24.90;18.30;;;;;;;13.20;77.55;99383.83;238672;1190;24120;-81
2021/09/22 11:46:35;;;;;;;25.20;18.20;;;;;;;13.42;77.59;99385.59;238453;1190;24042;-83
2021/09/22 11:52:16;;;;;;;22.30;17.10;;;;;;;13.74;77.26;99380.34;238746;1190;24158;-82
2021/09/22 11:57:20;;;;;;;22.40;16.70;;;;;;;13.93;76.20;99372.05;238686;1197;22433;-81
2021/09/22 12:02:28;;;;;;;21.70;16.60;;;;;;;13.96;75.53;99377.67;238597;1189;22447;-82
2021/09/22 12:07:31;;;;;;;18.80;15.00;;;;;;;13.84;74.72;99378.73;238547;1197;22496;-82
2021/09/22 12:12:35;;;;;;;20.10;14.60;;;;;;;13.69;74.77;99383.88;239248;1197;22458;-81
2021/09/22 12:17:40;;;;;;;21.30;14.60;;;;;;;13.74;75.33;99380.61;238807;1197;22461;-82
2021/09/22 12:22:55;;;;;;;18.90;14.60;;;;;;;13.93;74.97;99383.52;239262;1190;24055;-80
2021/09/22 12:27:59;;;;;;;17.70;14.10;;;;;;;13.76;73.95;99386.52;239391;1197;22451;-81
2021/09/22 12:33:07;;;;;;;19.50;14.90;;;;;;;13.55;73.66;99391.69;239451;1190;25241;-82
2021/09/22 12:38:18;;;;;;;22.20;15.90;;;;;;;13.34;74.04;99392.35;239010;1198;22485;-81
2021/09/22 12:43:27;;;;;;;25.30;17.30;;;;;;;13.06;74.72;99398.31;239084;1197;22585;-83
2021/09/22 12:48:30;;;;;;;17.90;14.80;;;;;;;12.71;75.21;99395.83;239031;1189;22492;-80
2021/09/22 12:53:33;;;;;;;18.70;13.70;;;;;;;12.50;75.57;99402.98;239193;1192;22418;-82
2021/09/22 12:58:52;;;;;;;17.90;13.00;;;;;;;12.39;76.05;99397.01;238963;1197;22421;-83
2021/09/22 13:03:57;;;;;;;16.10;13.00;;;;;;;12.41;76.27;99401.28;238978;1197;22447;-80
2021/09/22 13:09:05;;;;;;;16.80;12.90;;;;;;;12.56;76.39;99399.30;239508;1197;24086;-81
2021/09/22 13:14:19;;;;;;;20.10;13.70;;;;;;;12.77;76.59;99407.94;238902;1196;22451;-84
2021/09/22 13:19:26;;;;;;;13.90;10.10;;;;;;;12.98;76.45;99405.19;238962;1197;22418;-82
2021/09/22 13:24:30;;;;;;;11.20;8.90;;;;;;;13.12;75.95;99404.21;238641;1197;22516;-81
2021/09/22 13:29:33;;;;;;;13.90;10.20;;;;;;;13.16;75.48;99410.98;239033;1192;24060;-81
2021/09/22 13:34:36;;;;;;;13.20;10.40;;;;;;;13.19;75.16;99415.67;239282;1197;22440;-79
2021/09/22 13:39:39;;;;;;;13.10;9.00;;;;;;;13.32;75.46;99413.58;239501;1192;22445;-81
2021/09/22 13:44:41;;;;;;;12.30;9.00;;;;;;;13.47;75.17;99412.52;237514;1192;24054;-78
2021/09/22 13:49:44;;;;;;;10.30;7.70;;;;;;;13.59;75.21;99409.64;237468;1190;22742;-79
2021/09/22 13:54:47;;;;;;;10.60;7.60;;;;;;;13.59;74.49;99409.72;237494;1198;22442;-81
2021/09/22 13:59:50;;;;;;;11.80;8.20;;;;;;;13.57;74.24;99410.67;238884;1191;22473;-79
2021/09/22 14:04:53;;;;;;;11.10;8.30;;;;;;;13.51;74.22;99413.92;238437;1190;24018;-81
2021/09/22 14:09:55;;;;;;;11.90;8.60;;;;;;;13.48;74.17;99412.13;240156;1190;24072;-82
2021/09/22 14:14:59;;;;;;;11.80;8.00;;;;;;;13.46;73.95;99409.96;239015;1197;22525;-80
2021/09/22 14:20:03;;;;;;;12.60;8.50;;;;;;;13.46;73.91;99413.67;240181;1191;24046;-82
2021/09/22 14:25:06;;;;;;;15.20;10.40;;;;;;;13.36;73.37;99408.14;238518;1197;22558;-82
2021/09/22 14:30:12;;;;;;;12.90;9.00;;;;;;;13.25;73.59;99407.80;238887;1190;22462;-83
2021/09/22 14:35:15;;;;;;;24.00;16.70;;;;;;;13.22;73.90;99402.69;238909;1197;22452;-83
2021/09/22 14:40:20;;;;;;;13.20;9.80;;;;;;;13.34;74.48;99406.14;238837;1197;23976;-81
2021/09/22 14:45:23;;;;;;;13.40;10.00;;;;;;;13.51;74.11;99408.48;238279;1197;22475;-83
2021/09/22 14:50:31;;;;;;;15.00;9.50;;;;;;;13.58;73.93;99400.84;238335;1197;23990;-82
2021/09/22 14:55:34;;;;;;;13.80;9.30;;;;;;;13.52;73.53;99397.92;238511;1198;24011;-81
2021/09/22 15:00:37;;;;;;;12.80;9.30;;;;;;;13.46;73.83;99398.32;238298;1198;24029;-81
2021/09/22 15:05:40;;;;;;;13.30;9.60;;;;;;;13.40;73.72;99395.30;238450;1198;24166;-80
2021/09/22 15:10:43;;;;;;;15.20;10.40;;;;;;;13.33;73.78;99391.12;238771;1197;25151;-83
2021/09/22 15:15:47;;;;;;;16.30;11.20;;;;;;;13.24;73.81;99390.00;238151;1197;22527;-82
2021/09/22 15:20:53;;;;;;;15.10;10.80;;;;;;;13.13;73.79;99382.46;238115;1198;24088;-81
2021/09/22 15:25:55;;;;;;;16.60;9.80;;;;;;;12.92;73.83;99383.33;238105;1197;22459;-82
2021/09/22 15:30:58;;;;;;;16.90;11.60;;;;;;;12.78;73.94;99386.35;238349;1197;22793;-83
2021/09/22 15:36:00;;;;;;;21.30;13.00;;;;;;;12.68;74.25;99380.50;238431;1192;22445;-82
2021/09/22 15:41:04;;;;;;;21.30;13.40;;;;;;;12.56;74.32;99385.59;238332;1190;22463;-81
2021/09/22 15:46:07;;;;;;;20.60;13.00;;;;;;;12.38;74.34;99382.35;238199;1190;24073;-81
2021/09/22 15:51:10;;;;;;;24.20;14.40;;;;;;;12.18;74.94;99391.80;238076;1190;22435;-84
2021/09/22 15:56:13;;;;;;;25.00;13.70;;;;;;;11.99;75.25;99393.08;238298;1194;22499;-83
2021/09/22 16:01:16;;;;;;;23.70;13.60;;;;;;;11.77;75.50;99398.29;237863;1198;22481;-81
2021/09/22 16:06:24;;;;;;;25.60;14.20;;;;;;;11.65;75.89;99409.88;238196;1190;22439;-83
2021/09/22 16:11:27;;;;;;;27.60;15.40;;;;;;;11.51;76.36;99411.63;238239;1198;22604;-83
2021/09/22 16:16:31;;;;;;;30.60;16.20;;;;;;;11.41;76.72;99411.64;238205;1198;22442;-80
2021/09/22 16:21:36;;;;;;;26.60;15.70;;;;;;;11.33;76.80;99408.41;238275;1198;22753;-83
2021/09/22 16:26:39;;;;;;;32.40;15.80;;;;;;;11.29;77.07;99403.09;238089;1197;24009;-82
2021/09/22 16:31:46;;;;;;;32.30;16.30;;;;;;;11.28;77.23;99397.72;238232;1193;22459;-82
2021/09/22 16:36:49;;;;;;;35.50;16.50;;;;;;;11.26;77.43;99399.34;238436;1197;22463;-83
2021/09/22 16:41:54;;;;;;;31.90;15.80;;;;;;;11.16;77.32;99396.52;238317;1197;22430;-83
2021/09/22 16:46:57;;;;;;;32.20;17.30;;;;;;;11.04;77.74;99400.64;238592;1190;24146;-82
2021/09/22 16:52:03;;;;;;;33.40;17.30;;;;;;;10.98;77.94;99400.23;238427;1190;22427;-82
2021/09/22 16:57:08;;;;;;;33.30;17.60;;;;;;;10.95;78.22;99406.14;238198;1198;24103;-82
2021/09/22 17:02:13;;;;;;;38.50;19.60;;;;;;;10.95;78.43;99407.06;238524;1190;22473;-81
2021/09/22 17:07:16;;;;;;;35.50;19.60;;;;;;;10.97;78.68;99408.92;237971;1198;22751;-82
2021/09/22 17:12:18;;;;;;;39.50;20.10;;;;;;;11.04;79.04;99403.80;238245;1197;24204;-80
2021/09/22 17:17:22;;;;;;;47.00;25.70;;;;;;;11.01;78.86;99407.30;238138;1197;23023;-80
2021/09/22 17:22:26;;;;;;;59.50;32.10;;;;;;;10.97;78.91;99410.48;238459;1197;25699;-80
2021/09/22 17:27:30;;;;;;;60.10;32.00;;;;;;;10.93;79.00;99414.62;238323;1193;22420;-80
2021/09/22 17:32:34;;;;;;;60.70;31.30;;;;;;;10.91;79.24;99417.80;237694;1198;24114;-81
2021/09/22 17:37:37;;;;;;;54.00;27.70;;;;;;;10.90;79.43;99420.86;237698;1190;24009;-82
2021/09/22 17:42:41;;;;;;;60.50;28.30;;;;;;;10.89;79.73;99418.92;238559;1190;25335;-81
2021/09/22 17:47:44;;;;;;;66.10;33.90;;;;;;;10.91;79.85;99413.94;237631;1197;23561;-82
2021/09/22 17:52:47;;;;;;;74.40;36.70;;;;;;;10.89;79.82;99404.63;238395;1190;22383;-81
2021/09/22 17:57:50;;;;;;;82.60;39.10;;;;;;;10.86;79.88;99405.06;238312;1190;24073;-81
2021/09/22 18:02:52;;;;;;;80.40;38.10;;;;;;;10.82;80.18;99398.11;237295;1198;22881;-80
2021/09/22 18:07:55;;;;;;;74.00;34.00;;;;;;;10.84;80.36;99396.92;237410;1198;22470;-80
2021/09/22 18:12:58;;;;;;;86.30;36.70;;;;;;;10.84;80.49;99399.29;237612;1197;25105;-81
2021/09/22 18:18:04;;;;;;;86.90;38.40;;;;;;;10.80;80.69;99403.95;238448;1192;22497;-80
2021/09/22 18:23:09;;;;;;;88.50;28.60;;;;;;;10.78;81.12;99399.89;238191;1198;22541;-80
2021/09/22 18:28:11;;;;;;;76.20;22.30;;;;;;;10.82;81.22;99402.13;238428;1193;23628;-80
2021/09/22 18:33:14;;;;;;;74.00;23.00;;;;;;;10.81;81.19;99393.34;238240;1197;22428;-82
2021/09/22 18:38:18;;;;;;;68.90;20.30;;;;;;;10.78;81.32;99398.77;238320;1197;25320;-81
2021/09/22 18:43:21;;;;;;;68.50;20.30;;;;;;;10.74;81.44;99400.28;238111;1198;22683;-79
2021/09/22 18:48:26;;;;;;;62.30;19.10;;;;;;;10.75;81.88;99397.82;237990;1197;24076;-79
2021/09/22 18:53:29;;;;;;;64.00;18.80;;;;;;;10.68;81.47;99405.29;238113;1197;22383;-81
2021/09/22 18:58:32;;;;;;;56.30;18.30;;;;;;;10.59;81.62;99395.45;238554;1183;22466;-81
2021/09/22 19:03:35;;;;;;;60.70;19.10;;;;;;;10.47;81.76;99389.29;238278;1193;22437;-84
2021/09/22 19:08:38;;;;;;;58.60;19.80;;;;;;;10.37;81.94;99389.58;237521;1198;22478;-83
2021/09/22 19:13:41;;;;;;;60.50;17.70;;;;;;;10.28;82.38;99395.61;238205;1198;22591;-80
2021/09/22 19:18:57;;;;;;;54.30;17.10;;;;;;;10.21;82.46;99395.56;237945;1190;24187;-82
2021/09/22 19:24:20;;;;;;;64.70;18.30;;;;;;;10.16;82.53;99398.58;237589;1190;22442;-80
2021/09/22 19:29:25;;;;;;;67.10;20.70;;;;;;;10.11;82.84;99394.98;238207;1194;22653;-82
2021/09/22 19:34:29;;;;;;;59.60;17.50;;;;;;;10.05;82.77;99400.67;238425;1192;22460;-81
2021/09/22 19:39:33;;;;;;;63.10;17.50;;;;;;;9.99;82.94;99401.16;238120;1196;22503;-81
2021/09/22 19:44:36;;;;;;;63.10;18.10;;;;;;;9.93;83.07;99403.90;238223;1197;22470;-81
2021/09/22 19:49:39;;;;;;;61.90;17.20;;;;;;;9.89;83.19;99404.77;238356;1197;22773;-81
2021/09/22 19:54:42;;;;;;;48.20;17.10;;;;;;;9.83;83.21;99402.08;238139;1190;24215;-79
2021/09/22 19:59:45;;;;;;;49.40;16.50;;;;;;;9.79;83.40;99406.84;237194;1190;24156;-81
2021/09/22 20:04:48;;;;;;;49.60;15.00;;;;;;;9.76;83.47;99403.36;238146;1198;22476;-81
2021/09/22 20:09:53;;;;;;;43.50;12.90;;;;;;;9.76;83.57;99404.11;238256;1190;23668;-82
2021/09/22 20:14:55;;;;;;;43.70;12.10;;;;;;;9.73;83.63;99403.20;238278;1198;25659;-79
2021/09/22 20:19:59;;;;;;;40.30;11.60;;;;;;;9.70;83.61;99397.73;238182;1196;22457;-81
2021/09/22 20:25:02;;;;;;;40.20;12.90;;;;;;;9.61;83.31;99392.18;238256;1198;24040;-81
2021/09/22 20:30:06;;;;;;;41.40;10.70;;;;;;;9.50;83.41;99391.73;238433;1198;22549;-80
2021/09/22 20:35:11;;;;;;;39.30;11.60;;;;;;;9.39;83.30;99389.47;237507;1198;23087;-84
2021/09/22 20:40:18;;;;;;;42.20;12.10;;;;;;;9.25;83.35;99392.55;238064;1197;22442;-80
2021/09/22 20:45:21;;;;;;;41.80;11.90;;;;;;;9.12;83.66;99389.63;238069;1197;22461;-79
2021/09/22 20:50:25;;;;;;;41.90;13.20;;;;;;;8.98;83.62;99398.52;237451;1197;22448;-79
2021/09/22 20:55:28;;;;;;;41.10;12.00;;;;;;;8.86;83.71;99403.27;237292;1197;22653;-80
2021/09/22 21:00:39;;;;;;;37.00;10.50;;;;;;;8.72;83.72;99392.80;237399;1193;24051;-81
2021/09/22 21:05:42;;;;;;;39.50;12.00;;;;;;;8.57;83.76;99395.89;237932;1198;24025;-81
2021/09/22 21:10:57;;;;;;;42.20;11.60;;;;;;;8.46;84.03;99399.40;238202;1198;24088;-82
2021/09/22 21:16:02;;;;;;;36.40;11.30;;;;;;;8.34;84.09;99396.73;238249;1197;22421;-79
2021/09/22 21:21:10;;;;;;;43.60;12.80;;;;;;;8.22;84.06;99397.05;237397;1197;24101;-80
2021/09/22 21:26:17;;;;;;;41.80;12.70;;;;;;;8.11;84.51;99398.48;238330;1190;22512;-80
2021/09/22 21:31:20;;;;;;;38.10;11.50;;;;;;;8.03;84.64;99393.20;237103;1197;23230;-80
2021/09/22 21:36:23;;;;;;;34.50;9.90;;;;;;;7.89;84.32;99387.91;237131;1197;24139;-79
2021/09/22 21:41:26;;;;;;;27.70;10.40;;;;;;;7.74;84.53;99385.77;236957;1199;22437;-81
2021/09/22 21:46:32;;;;;;;32.70;10.70;;;;;;;7.59;84.61;99386.01;237295;1198;24259;-80
2021/09/22 21:51:42;;;;;;;42.30;12.50;;;;;;;7.49;85.10;99389.55;237304;1198;24006;-79
2021/09/22 21:56:47;;;;;;;40.70;14.20;;;;;;;7.46;85.55;99391.39;237342;1190;22426;-79
2021/09/22 22:01:50;;;;;;;34.20;13.40;;;;;;;7.48;85.71;99385.64;237494;1198;22448;-79
2021/09/22 22:06:53;;;;;;;48.30;13.80;;;;;;;7.50;85.96;99378.79;237369;1190;24031;-80
2021/09/22 22:11:56;;;;;;;50.40;15.00;;;;;;;7.55;86.27;99371.14;237341;1197;24153;-79
2021/09/22 22:17:01;;;;;;;49.70;15.80;;;;;;;7.64;86.47;99368.78;237271;1198;22490;-78
2021/09/22 22:22:23;;;;;;;54.60;14.70;;;;;;;7.72;86.48;99368.68;237030;1193;25054;-79
2021/09/22 22:27:26;;;;;;;51.40;14.50;;;;;;;7.77;86.29;99365.73;237058;1190;22451;-80
2021/09/22 22:32:30;;;;;;;47.00;14.10;;;;;;;7.80;86.42;99364.11;237369;1184;22485;-79
2021/09/22 22:37:34;;;;;;;54.90;14.90;;;;;;;7.89;86.60;99369.02;237363;1190;22462;-80
2021/09/22 22:42:38;;;;;;;49.20;14.90;;;;;;;7.96;86.51;99372.38;237273;1190;22438;-80
2021/09/22 22:47:42;;;;;;;44.00;12.80;;;;;;;8.04;86.65;99369.77;237399;1183;24188;-80
2021/09/22 22:52:45;;;;;;;49.60;15.40;;;;;;;8.08;86.55;99365.52;237989;1190;25167;-79
2021/09/22 22:57:48;;;;;;;60.40;16.10;;;;;;;8.15;86.88;99363.81;237196;1190;24031;-80
2021/09/22 23:02:51;;;;;;;50.40;14.50;;;;;;;8.26;87.01;99364.40;237274;1197;22568;-81
2021/09/22 23:07:54;;;;;;;50.40;14.20;;;;;;;8.36;87.02;99362.75;237541;1197;24129;-81
2021/09/22 23:12:57;;;;;;;49.50;14.50;;;;;;;8.43;86.81;99358.17;237871;1190;22640;-81
2021/09/22 23:23:23;;;;;;;44.20;14.10;;;;;;;8.54;86.69;99350.70;237662;1183;24075;-79
2021/09/22 23:28:27;;;;;;;45.80;15.00;;;;;;;8.53;86.42;99342.52;237337;1197;22419;-81
2021/09/22 23:33:30;;;;;;;53.90;15.10;;;;;;;8.42;86.35;99332.73;237984;1197;22442;-81